createdAt,value
2019-04-04T00:02:04.087Z,8.70
2019-04-04T00:04:35.162Z,9.40
2019-04-04T00:07:06.163Z,9.73
2019-04-04T00:09:37.181Z,9.73
2019-04-04T00:12:08.704Z,10.32
2019-04-04T00:14:43.484Z,11.30
2019-04-04T00:17:15.461Z,10.43
2019-04-04T00:19:47.508Z,11.22
2019-04-04T00:22:19.332Z,12.07
2019-04-04T00:24:51.176Z,12.07
2019-04-04T00:27:25.408Z,13.13
2019-04-04T00:30:02.791Z,13.63
2019-04-04T00:32:34.180Z,14.23
2019-04-04T00:35:12.025Z,14.93
2019-04-04T00:37:43.340Z,13.72
2019-04-04T00:40:14.669Z,15.20
2019-04-04T00:42:54.925Z,15.03
2019-04-04T00:45:28.730Z,15.80
2019-04-04T00:48:03.083Z,14.98
2019-04-04T00:50:36.775Z,16.12
2019-04-04T00:53:12.316Z,15.28
2019-04-04T00:55:48.876Z,16.00
2019-04-04T00:58:20.833Z,16.20
2019-04-04T01:00:54.915Z,15.85
2019-04-04T01:03:32.132Z,16.27
2019-04-04T01:06:03.781Z,20.15
2019-04-04T01:08:38.011Z,18.55
2019-04-04T01:11:08.138Z,20.20
2019-04-04T01:13:39.569Z,18.67
2019-04-04T01:16:10.898Z,17.90
2019-04-04T01:18:42.279Z,17.60
2019-04-04T01:21:13.661Z,18.25
2019-04-04T01:23:50.942Z,16.55
2019-04-04T01:26:31.250Z,18.42
2019-04-04T01:29:05.506Z,18.55
2019-04-04T01:31:46.026Z,18.20
2019-04-04T01:34:20.802Z,18.10
2019-04-04T01:36:51.958Z,18.65
2019-04-04T01:39:35.018Z,19.70
2019-04-04T01:42:07.224Z,20.60
2019-04-04T01:44:40.157Z,20.97
2019-04-04T01:47:17.651Z,21.07
2019-04-04T01:49:49.963Z,20.62
2019-04-04T01:52:27.773Z,21.07
2019-04-04T01:54:59.125Z,21.62
2019-04-04T01:57:30.429Z,21.65
2019-04-04T02:00:02.849Z,20.60
2019-04-04T02:02:34.606Z,19.62
2019-04-04T02:05:08.815Z,19.95
2019-04-04T02:07:39.939Z,20.55
2019-04-04T02:10:11.073Z,19.23
2019-04-04T02:12:42.241Z,19.73
2019-04-04T02:15:14.274Z,20.88
2019-04-04T02:17:46.170Z,19.60
2019-04-04T02:20:17.572Z,20.50
2019-04-04T02:22:52.015Z,19.95
2019-04-04T02:25:23.134Z,14.73
2019-04-04T02:27:54.191Z,19.87
2019-04-04T02:30:25.332Z,20.02
2019-04-04T02:32:59.332Z,20.20
2019-04-04T02:35:29.364Z,20.40
2019-04-04T02:38:00.612Z,20.52
2019-04-04T02:40:31.813Z,21.50
2019-04-04T02:43:02.924Z,20.60
2019-04-04T02:45:35.687Z,20.55
2019-04-04T02:48:07.041Z,20.82
2019-04-04T02:50:38.231Z,21.02
2019-04-04T02:53:09.504Z,21.00
2019-04-04T02:55:40.634Z,20.75
2019-04-04T02:58:15.089Z,21.90
2019-04-04T03:00:44.596Z,29.70
2019-04-04T03:03:17.384Z,25.30
2019-04-04T03:05:51.952Z,36.08
2019-04-04T03:08:22.335Z,33.30
2019-04-04T03:10:53.519Z,31.62
2019-04-04T03:13:24.620Z,33.50
2019-04-04T03:15:55.726Z,28.15
2019-04-04T03:18:26.808Z,31.75
2019-04-04T03:20:58.067Z,30.40
2019-04-04T03:23:32.984Z,30.15
2019-04-04T03:26:03.294Z,30.90
2019-04-04T03:28:34.524Z,30.50
2019-04-04T03:31:05.664Z,29.02
2019-04-04T03:33:36.933Z,28.30
2019-04-04T03:36:07.979Z,31.33
2019-04-04T03:38:39.210Z,33.08
2019-04-04T03:41:10.219Z,32.13
2019-04-04T03:43:41.404Z,30.08
2019-04-04T03:46:12.604Z,27.05
2019-04-04T03:48:43.862Z,23.90
2019-04-04T03:51:15.087Z,24.27
2019-04-04T03:53:50.567Z,25.70
2019-04-04T03:56:22.153Z,26.25
2019-04-04T03:58:53.274Z,25.77
2019-04-04T04:01:24.362Z,26.50
2019-04-04T04:03:56.976Z,25.62
2019-04-04T04:06:28.044Z,27.82
2019-04-04T04:08:59.160Z,26.77
2019-04-04T04:11:30.257Z,26.55
2019-04-04T04:14:01.417Z,28.85
2019-04-04T04:16:34.766Z,27.42
2019-04-04T04:19:05.397Z,30.65
2019-04-04T04:21:36.595Z,32.55
2019-04-04T04:24:07.645Z,31.00
2019-04-04T04:26:42.002Z,32.85
2019-04-04T04:29:11.637Z,34.78
2019-04-04T04:31:42.712Z,34.13
2019-04-04T04:34:14.001Z,33.45
2019-04-04T04:36:47.692Z,32.48
2019-04-04T04:39:18.103Z,34.15
2019-04-04T04:41:53.138Z,31.87
2019-04-04T04:44:22.261Z,30.85
2019-04-04T04:46:53.618Z,29.37
2019-04-04T04:49:25.851Z,29.77
2019-04-04T04:51:57.122Z,30.82
2019-04-04T04:54:28.247Z,28.00
2019-04-04T04:57:03.546Z,29.98
2019-04-04T04:59:32.365Z,27.65
2019-04-04T05:02:03.472Z,28.87
2019-04-04T05:04:36.145Z,28.65
2019-04-04T05:07:08.031Z,29.35
2019-04-04T05:09:39.404Z,30.12
2019-04-04T05:12:10.760Z,31.85
2019-04-04T05:14:42.262Z,30.77
2019-04-04T05:17:13.586Z,31.50
2019-04-04T05:19:46.008Z,31.97
2019-04-04T05:22:17.175Z,32.98
2019-04-04T05:25:06.892Z,31.93
2019-04-04T05:27:21.146Z,33.00
2019-04-04T05:29:52.355Z,33.65
2019-04-04T05:32:23.430Z,32.03
2019-04-04T05:34:55.638Z,30.97
2019-04-04T05:37:27.594Z,31.77
2019-04-04T05:39:58.950Z,31.02
2019-04-04T05:42:32.816Z,29.75
2019-04-04T05:45:02.977Z,30.08
2019-04-04T05:47:34.407Z,31.73
2019-04-04T05:50:06.201Z,32.48
2019-04-04T05:52:37.482Z,32.42
2019-04-04T05:55:10.855Z,32.10
2019-04-04T05:57:41.590Z,27.60
2019-04-04T06:00:14.004Z,29.12
2019-04-04T06:02:45.339Z,30.05
2019-04-04T06:05:17.220Z,30.80
2019-04-04T06:07:48.451Z,30.72
2019-04-04T06:10:19.612Z,29.02
2019-04-04T06:12:50.840Z,29.95
2019-04-04T06:15:22.011Z,30.43
2019-04-04T06:17:53.143Z,28.95
2019-04-04T06:20:24.473Z,30.17
2019-04-04T06:22:55.568Z,31.48
2019-04-04T06:25:26.963Z,32.33
2019-04-04T06:27:58.257Z,33.35
2019-04-04T06:30:42.256Z,29.57
2019-04-04T06:33:04.740Z,26.27
2019-04-04T06:35:35.498Z,25.75
2019-04-04T06:38:06.642Z,25.57
2019-04-04T06:40:37.730Z,26.85
2019-04-04T06:43:11.516Z,25.90
2019-04-04T06:45:41.649Z,24.55
2019-04-04T06:48:12.825Z,24.47
2019-04-04T06:50:43.862Z,23.20
2019-04-04T06:53:15.131Z,23.52
2019-04-04T06:55:46.212Z,24.00
2019-04-04T06:58:17.392Z,22.60
2019-04-04T07:00:50.151Z,22.13
2019-04-04T07:03:21.422Z,21.77
2019-04-04T07:05:52.673Z,22.85
2019-04-04T07:08:23.726Z,23.55
2019-04-04T07:10:58.226Z,23.27
2019-04-04T07:13:28.315Z,22.55
2019-04-04T07:16:07.002Z,23.18
2019-04-04T07:18:32.678Z,23.57
2019-04-04T07:21:03.845Z,22.13
2019-04-04T07:23:35.007Z,21.85
2019-04-04T07:26:06.253Z,22.32
2019-04-04T07:28:38.474Z,20.80
2019-04-04T07:31:09.653Z,18.77
2019-04-04T07:33:42.579Z,19.10
2019-04-04T07:36:13.535Z,18.85
2019-04-04T07:38:44.654Z,18.27
2019-04-04T07:41:15.897Z,18.15
2019-04-04T07:43:46.994Z,14.83
2019-04-04T07:46:18.159Z,14.83
2019-04-04T07:48:51.587Z,16.30
2019-04-04T07:51:22.424Z,16.07
2019-04-04T07:53:53.612Z,16.57
2019-04-04T07:56:24.715Z,15.78
2019-04-04T07:58:55.913Z,16.60
2019-04-04T08:01:26.966Z,15.53
2019-04-04T08:03:58.074Z,16.10
2019-04-04T08:06:29.269Z,14.73
2019-04-04T08:09:03.713Z,15.63
2019-04-04T08:11:35.010Z,14.47
2019-04-04T08:14:06.153Z,14.07
2019-04-04T08:16:37.326Z,14.35
2019-04-04T08:19:08.510Z,4.92
2019-04-04T08:21:39.529Z,5.45
2019-04-04T08:24:10.523Z,12.70
2019-04-04T08:26:41.877Z,12.30
2019-04-04T08:29:12.967Z,13.55
2019-04-04T08:31:44.103Z,13.83
2019-04-04T08:34:15.342Z,8.58
2019-04-04T08:36:46.360Z,10.30
2019-04-04T08:39:17.474Z,9.78
2019-04-04T08:41:48.511Z,11.95
2019-04-04T08:44:19.712Z,6.90
2019-04-04T08:46:50.713Z,5.80
2019-04-04T08:49:21.707Z,5.78
2019-04-04T08:51:52.748Z,5.00
2019-04-04T08:54:23.705Z,5.00
2019-04-04T08:56:54.788Z,4.33
2019-04-04T08:59:25.781Z,5.40
2019-04-04T09:01:56.852Z,3.30
2019-04-04T09:04:27.870Z,4.92
2019-04-04T09:06:58.898Z,5.33
2019-04-04T09:09:29.854Z,7.35
2019-04-04T09:12:01.107Z,7.03
2019-04-04T09:14:32.223Z,9.10
2019-04-04T09:17:03.176Z,9.95
2019-04-04T09:19:34.244Z,10.28
2019-04-04T09:22:05.524Z,10.80
2019-04-04T09:24:36.656Z,10.32
2019-04-04T09:27:07.904Z,10.35
2019-04-04T09:29:38.977Z,10.70
2019-04-04T09:32:10.045Z,10.90
2019-04-04T09:34:41.092Z,9.55
2019-04-04T09:37:12.043Z,9.93
2019-04-04T09:39:43.063Z,10.25
2019-04-04T09:42:14.197Z,10.25
2019-04-04T09:44:45.208Z,10.63
2019-04-04T09:47:16.261Z,11.35
2019-04-04T09:49:47.361Z,11.63
2019-04-04T09:52:18.628Z,10.95
2019-04-04T09:54:50.758Z,10.98
2019-04-04T09:57:21.962Z,10.00
2019-04-04T09:59:53.295Z,8.88
2019-04-04T10:02:24.331Z,8.15
2019-04-04T10:04:55.334Z,8.45
2019-04-04T10:07:26.874Z,11.20
2019-04-04T10:09:58.006Z,11.68
2019-04-04T10:12:30.520Z,11.75
2019-04-04T10:15:01.610Z,11.70
2019-04-04T10:17:32.845Z,12.85
2019-04-04T10:20:06.084Z,11.08
2019-04-04T10:22:37.225Z,12.47
2019-04-04T10:25:08.323Z,13.05
2019-04-04T10:27:39.437Z,12.63
2019-04-04T10:30:10.663Z,11.38
2019-04-04T10:32:41.816Z,11.63
2019-04-04T10:35:13.014Z,11.75
2019-04-04T10:37:44.156Z,9.55
2019-04-04T10:40:15.399Z,11.75
2019-04-04T10:42:46.615Z,11.60
2019-04-04T10:45:17.774Z,11.00
2019-04-04T10:47:48.930Z,11.00
2019-04-04T10:50:20.003Z,10.23
2019-04-04T10:52:51.175Z,11.03
2019-04-04T10:55:22.209Z,10.20
2019-04-04T10:57:53.415Z,10.65
2019-04-04T11:00:24.798Z,11.35
2019-04-04T11:02:55.905Z,11.28
2019-04-04T11:05:26.920Z,12.23
2019-04-04T11:07:58.203Z,11.33
2019-04-04T11:10:29.334Z,11.75
2019-04-04T11:13:02.881Z,11.95
2019-04-04T11:15:33.434Z,12.05
2019-04-04T11:18:04.470Z,11.88
2019-04-04T11:20:35.574Z,12.60
2019-04-04T11:23:06.796Z,11.83
2019-04-04T11:25:37.982Z,11.97
2019-04-04T11:28:09.160Z,13.45
2019-04-04T11:30:40.199Z,11.40
2019-04-04T11:33:11.299Z,11.55
2019-04-04T11:35:42.441Z,10.90
2019-04-04T11:38:14.671Z,10.90
2019-04-04T11:40:45.754Z,11.95
2019-04-04T11:43:17.390Z,11.75
2019-04-04T11:45:48.446Z,10.93
2019-04-04T11:48:19.613Z,12.43
2019-04-04T11:50:53.490Z,11.28
2019-04-04T11:53:25.137Z,11.85
2019-04-04T11:55:56.333Z,10.60
2019-04-04T11:58:27.461Z,11.22
2019-04-04T12:01:06.197Z,9.38
2019-04-04T12:03:37.361Z,10.82
2019-04-04T12:06:08.408Z,10.40
2019-04-04T12:08:39.421Z,10.32
2019-04-04T12:11:10.643Z,9.70
2019-04-04T12:13:41.877Z,10.03
2019-04-04T12:16:12.993Z,9.50
2019-04-04T12:18:44.204Z,9.40
2019-04-04T12:21:15.298Z,9.95
2019-04-04T12:23:46.430Z,9.65
2019-04-04T12:26:17.617Z,9.53
2019-04-04T12:28:48.751Z,9.98
2019-04-04T12:31:19.780Z,8.80
2019-04-04T12:33:50.861Z,10.38
2019-04-04T12:36:24.676Z,9.28
2019-04-04T12:38:55.150Z,9.23
2019-04-04T12:41:28.222Z,10.40
2019-04-04T12:43:59.367Z,9.90
2019-04-04T12:46:30.521Z,9.95
2019-04-04T12:49:01.612Z,8.95
2019-04-04T12:51:33.038Z,8.40
2019-04-04T12:54:04.173Z,8.60
2019-04-04T12:56:35.424Z,9.35
2019-04-04T12:59:06.569Z,9.60
2019-04-04T13:01:37.656Z,9.75
2019-04-04T13:04:08.999Z,9.45
2019-04-04T13:06:40.098Z,10.45
2019-04-04T13:09:11.355Z,10.35
2019-04-04T13:11:44.162Z,10.85
2019-04-04T13:14:15.301Z,11.25
2019-04-04T13:16:46.487Z,11.35
2019-04-04T13:19:17.571Z,11.33
2019-04-04T13:21:48.731Z,11.38
2019-04-04T13:24:19.872Z,12.15
2019-04-04T13:26:51.179Z,11.45
2019-04-04T13:29:22.256Z,11.35
2019-04-04T13:31:53.274Z,11.70
2019-04-04T13:34:24.604Z,10.30
2019-04-04T13:36:55.725Z,9.35
2019-04-04T13:39:26.763Z,8.58
2019-04-04T13:41:57.900Z,9.28
2019-04-04T13:44:29.028Z,8.98
2019-04-04T13:47:02.797Z,9.80
2019-04-04T13:49:33.160Z,10.20
2019-04-04T13:52:04.441Z,10.18
2019-04-04T13:54:35.714Z,10.40
2019-04-04T13:57:06.936Z,11.05
2019-04-04T13:59:38.178Z,11.40
2019-04-04T14:02:09.420Z,11.55
2019-04-04T14:04:40.577Z,11.40
2019-04-04T14:07:11.692Z,11.18
2019-04-04T14:09:45.207Z,10.82
2019-04-04T14:12:15.666Z,11.65
2019-04-04T14:14:47.197Z,10.72
2019-04-04T14:17:18.347Z,11.88
2019-04-04T14:19:49.434Z,10.98
2019-04-04T14:22:20.506Z,11.83
2019-04-04T14:24:51.573Z,11.73
2019-04-04T14:27:22.619Z,11.57
2019-04-04T14:29:55.304Z,12.05
2019-04-04T14:32:26.568Z,10.48
2019-04-04T14:34:57.624Z,11.12
2019-04-04T14:37:28.735Z,9.95
2019-04-04T14:39:59.936Z,10.03
2019-04-04T14:42:31.213Z,10.88
2019-04-04T14:45:02.884Z,9.48
2019-04-04T14:47:34.993Z,10.13
2019-04-04T14:50:07.528Z,11.22
2019-04-04T14:52:39.963Z,9.80
2019-04-04T14:55:11.125Z,11.43
2019-04-04T14:57:43.351Z,11.55
2019-04-04T15:00:16.156Z,10.38
2019-04-04T15:02:47.307Z,9.80
2019-04-04T15:05:19.562Z,10.65
2019-04-04T15:07:50.658Z,10.68
2019-04-04T15:10:21.982Z,11.78
2019-04-04T15:12:53.022Z,10.50
2019-04-04T15:15:26.251Z,10.60
2019-04-04T15:17:57.159Z,10.50
2019-04-04T15:20:30.638Z,11.03
2019-04-04T15:23:02.028Z,10.90
2019-04-04T15:25:33.271Z,9.75
2019-04-04T15:28:04.416Z,9.55
2019-04-04T15:30:35.471Z,10.68
2019-04-04T15:33:06.497Z,11.88
2019-04-04T15:35:37.680Z,10.82
2019-04-04T15:38:09.870Z,11.15
2019-04-04T15:40:41.107Z,12.15
2019-04-04T15:43:12.301Z,12.70
2019-04-04T15:45:44.563Z,12.50
2019-04-04T15:48:15.594Z,11.73
2019-04-04T15:50:46.685Z,12.82
2019-04-04T15:53:18.160Z,10.98
2019-04-04T15:55:49.308Z,12.65
2019-04-04T15:58:20.822Z,14.13
2019-04-04T16:00:52.215Z,13.90
2019-04-04T16:03:23.441Z,14.47
2019-04-04T16:05:54.636Z,14.03
2019-04-04T16:08:25.840Z,13.15
2019-04-04T16:11:00.146Z,13.55
2019-04-04T16:13:31.480Z,13.95
2019-04-04T16:16:05.275Z,13.50
2019-04-04T16:18:36.514Z,12.35
2019-04-04T16:21:07.982Z,11.63
2019-04-04T16:23:39.462Z,13.40
2019-04-04T16:26:10.611Z,12.73
2019-04-04T16:28:43.237Z,13.68
2019-04-04T16:31:14.329Z,14.40
2019-04-04T16:33:45.672Z,12.75
2019-04-04T16:36:16.898Z,14.40
2019-04-04T16:38:48.065Z,14.95
2019-04-04T16:41:19.120Z,13.90
2019-04-04T16:43:50.293Z,15.32
2019-04-04T16:46:21.527Z,17.05
2019-04-04T16:48:52.657Z,19.60
2019-04-04T16:51:23.868Z,19.42
2019-04-04T16:53:55.016Z,19.52
2019-04-04T16:56:26.235Z,23.65
2019-04-04T16:58:57.327Z,24.20
2019-04-04T17:01:28.462Z,24.40
2019-04-04T17:04:01.942Z,25.55
2019-04-04T17:06:33.019Z,23.95
2019-04-04T17:09:05.750Z,24.32
2019-04-04T17:11:37.076Z,27.67
2019-04-04T17:14:08.346Z,21.20
2019-04-04T17:16:39.645Z,21.65
2019-04-04T17:19:11.940Z,26.50
2019-04-04T17:21:43.065Z,23.07
2019-04-04T17:24:14.322Z,27.07
2019-04-04T17:26:45.500Z,30.80
2019-04-04T17:29:16.805Z,29.02
2019-04-04T17:31:50.393Z,25.57
2019-04-04T17:34:21.660Z,25.02
2019-04-04T17:36:54.360Z,24.45
2019-04-04T17:39:25.659Z,22.48
2019-04-04T17:41:57.127Z,26.27
2019-04-04T17:44:28.560Z,25.60
2019-04-04T17:47:03.232Z,35.23
2019-04-04T17:49:34.682Z,26.15
2019-04-04T17:52:07.898Z,36.55
2019-04-04T17:54:39.552Z,47.20
2019-04-04T17:57:11.118Z,44.38
2019-04-04T17:59:42.321Z,61.02
2019-04-04T18:02:13.480Z,45.67
2019-04-04T18:04:48.479Z,52.93
2019-04-04T18:07:18.742Z,49.58
2019-04-04T18:09:50.845Z,50.03
2019-04-04T18:12:21.914Z,45.48
2019-04-04T18:14:53.046Z,62.65
2019-04-04T18:17:24.210Z,41.18
2019-04-04T18:19:55.347Z,41.35
2019-04-04T18:22:26.489Z,41.80
2019-04-04T18:24:57.586Z,39.70
2019-04-04T18:27:28.654Z,37.28
2019-04-04T18:30:00.889Z,35.68
2019-04-04T18:32:31.966Z,37.25
2019-04-04T18:35:03.613Z,34.40
2019-04-04T18:37:34.828Z,35.23
2019-04-04T18:40:08.073Z,34.25
2019-04-04T18:42:39.150Z,34.95
2019-04-04T18:45:11.547Z,34.10
2019-04-04T18:47:42.725Z,30.27
2019-04-04T18:50:13.996Z,32.70
2019-04-04T18:52:46.316Z,34.63
2019-04-04T18:55:19.944Z,34.70
2019-04-04T18:57:50.711Z,36.63
2019-04-04T19:00:21.985Z,36.50
2019-04-04T19:02:53.238Z,39.15
2019-04-04T19:05:24.386Z,44.20
2019-04-04T19:07:55.465Z,50.60
2019-04-04T19:10:26.769Z,46.75
2019-04-04T19:13:05.237Z,37.88
2019-04-04T19:15:30.771Z,36.88
2019-04-04T19:18:01.976Z,37.58
2019-04-04T19:20:33.158Z,42.95
2019-04-04T19:23:04.252Z,44.58
2019-04-04T19:25:35.784Z,45.60
2019-04-04T19:28:07.731Z,38.65
2019-04-04T19:30:38.965Z,38.25
2019-04-04T19:33:11.257Z,43.73
2019-04-04T19:35:42.564Z,42.85
2019-04-04T19:38:13.665Z,40.88
2019-04-04T19:40:44.759Z,39.83
2019-04-04T19:43:18.278Z,39.00
2019-04-04T19:45:48.637Z,36.63
2019-04-04T19:48:19.817Z,36.65
2019-04-04T19:50:51.918Z,36.50
2019-04-04T19:53:23.056Z,34.88
2019-04-04T19:55:55.387Z,38.00
2019-04-04T19:58:26.581Z,37.73
2019-04-04T20:00:57.840Z,43.73
2019-04-04T20:03:28.984Z,42.13
2019-04-04T20:06:00.194Z,43.15
2019-04-04T20:08:31.311Z,46.02
2019-04-04T20:11:02.703Z,46.90
2019-04-04T20:13:33.833Z,49.75
2019-04-04T20:16:04.935Z,43.00
2019-04-04T20:18:36.061Z,40.33
2019-04-04T20:21:07.089Z,43.33
2019-04-04T20:23:38.183Z,40.43
2019-04-04T20:26:09.351Z,39.70
2019-04-04T20:28:40.523Z,40.78
2019-04-04T20:31:11.695Z,37.45
2019-04-04T20:33:42.818Z,41.00
2019-04-04T20:36:13.841Z,39.75
2019-04-04T20:38:45.080Z,37.42
2019-04-04T20:41:16.728Z,38.10
2019-04-04T20:43:48.045Z,37.75
2019-04-04T20:46:19.165Z,37.60
2019-04-04T20:48:50.486Z,37.78
2019-04-04T20:51:21.590Z,37.73
2019-04-04T20:53:52.741Z,38.30
2019-04-04T20:56:23.863Z,36.80
2019-04-04T20:58:54.930Z,37.45
2019-04-04T21:01:26.155Z,40.55
2019-04-04T21:03:57.326Z,41.15
2019-04-04T21:06:28.433Z,39.78
2019-04-04T21:08:59.535Z,40.43
2019-04-04T21:11:30.905Z,41.77
2019-04-04T21:14:01.996Z,39.30
2019-04-04T21:16:33.044Z,40.83
2019-04-04T21:19:04.135Z,42.13
2019-04-04T21:21:35.177Z,41.95
2019-04-04T21:24:06.213Z,43.68
2019-04-04T21:26:37.387Z,42.27
2019-04-04T21:29:08.445Z,43.83
2019-04-04T21:31:39.468Z,43.85
2019-04-04T21:34:10.509Z,39.30
2019-04-04T21:36:41.639Z,46.48
2019-04-04T21:39:12.720Z,53.00
2019-04-04T21:41:43.817Z,43.52
2019-04-04T21:44:14.993Z,43.48
2019-04-04T21:46:46.416Z,40.43
2019-04-04T21:49:17.471Z,40.38
2019-04-04T21:51:48.558Z,42.85
2019-04-04T21:54:19.683Z,44.93
2019-04-04T21:56:50.764Z,43.92
2019-04-04T21:59:21.892Z,41.40
2019-04-04T22:01:53.210Z,41.58
2019-04-04T22:04:24.453Z,41.42
2019-04-04T22:06:55.558Z,43.17
2019-04-04T22:09:26.789Z,42.40
2019-04-04T22:11:58.004Z,42.58
2019-04-04T22:14:29.101Z,40.17
2019-04-04T22:17:00.310Z,41.53
2019-04-04T22:19:32.513Z,40.58
2019-04-04T22:22:03.700Z,40.43
2019-04-04T22:24:34.917Z,39.08
2019-04-04T22:27:06.244Z,40.43
2019-04-04T22:29:37.290Z,42.55
2019-04-04T22:32:08.487Z,41.77
2019-04-04T22:34:39.580Z,42.53
2019-04-04T22:37:10.821Z,43.17
2019-04-04T22:39:41.980Z,42.80
2019-04-04T22:42:13.327Z,42.38
2019-04-04T22:44:44.493Z,41.02
2019-04-04T22:47:15.646Z,41.60
2019-04-04T22:49:46.815Z,42.33
2019-04-04T22:52:17.827Z,44.38
2019-04-04T22:54:48.888Z,43.00
2019-04-04T22:57:19.926Z,45.00
2019-04-04T22:59:51.026Z,44.90
2019-04-04T23:02:22.182Z,44.38
2019-04-04T23:04:53.255Z,44.40
2019-04-04T23:07:24.343Z,45.35
2019-04-04T23:09:55.404Z,45.45
2019-04-04T23:12:26.547Z,43.30
2019-04-04T23:14:57.597Z,44.03
2019-04-04T23:17:29.805Z,45.15
2019-04-04T23:20:01.077Z,48.35
2019-04-04T23:22:32.157Z,47.88
2019-04-04T23:25:03.688Z,45.23
2019-04-04T23:27:34.682Z,46.95
2019-04-04T23:30:06.365Z,43.15
2019-04-04T23:32:37.506Z,45.83
2019-04-04T23:35:08.558Z,45.83
2019-04-04T23:37:39.632Z,48.78
2019-04-04T23:40:10.752Z,49.00
2019-04-04T23:42:41.766Z,47.43
2019-04-04T23:45:13.047Z,47.98
2019-04-04T23:47:44.283Z,46.33
2019-04-04T23:50:15.528Z,47.65
2019-04-04T23:52:46.669Z,46.30
2019-04-04T23:55:18.840Z,46.48
2019-04-04T23:57:50.030Z,45.85
